Changting, China
Current Conditions -  °F | °C
As of 1:00 PM on Thursday 18 Dec 2014 (Local Time) from ZSAM Reporting Station
Clear Clear  
Wind Chill: 59°   Ceiling: Unl
Heat Index: 59°   Visibility: 6mi
Dew Point: 37°   Wind: 13mph
Humidity: 45%   Direction: 30°NNE
Pressure: 30.36"   Gusts: NA
Location:  25.85°N, 116.37°E
Report Text: ZSAM 180500Z 03006MPS CAVOK 15/03 Q1028 NOSIG
Loading
Personal Weather Stations






























Interactive Weather Map New forecast layout! Learn more

10-Day Weather Forecast

Advertisements
Track Severe Weather on mobile